Time;durP1;ratioP1;P1;durP2;ratioP2;P2;SDS_P1;SDS_P2;PMS_P1;PMS_P2;Temp;Humidity;BMP_temperature;BMP_pressure;BME280_temperature;BME280_humidity;BME280_pressure;Samples;Min_cycle;Max_cycle;Signal;HPM_P1;HPM_P2
2024/03/07 00:14:26;;;;;;;40.90;16.60;;;;;;;2.35;67.42;101588.39;681414;1263;139531;-79
2024/03/07 00:29:30;;;;;;;33.50;15.10;;;;;;;2.12;67.91;101586.20;681507;1266;139186;-78
2024/03/07 00:44:37;;;;;;;50.60;21.80;;;;;;;2.16;67.86;101579.70;681856;1263;139186;-78
2024/03/07 00:59:40;;;;;;;53.90;21.00;;;;;;;2.15;68.07;101581.27;681726;1261;139958;-78
2024/03/07 01:14:45;;;;;;;40.80;17.20;;;;;;;2.03;68.08;101581.83;681789;1260;139310;-79
2024/03/07 01:29:49;;;;;;;44.80;18.40;;;;;;;1.94;68.03;101576.75;681596;1263;139746;-78
2024/03/07 01:44:52;;;;;;;40.10;18.60;;;;;;;1.83;68.76;101575.18;681760;1265;138860;-78
2024/03/07 01:59:56;;;;;;;44.70;18.00;;;;;;;1.70;69.20;101570.75;681538;1260;141637;-78
2024/03/07 02:15:00;;;;;;;38.10;16.90;;;;;;;1.57;69.29;101572.87;681440;1264;139738;-78
2024/03/07 02:30:08;;;;;;;42.10;16.90;;;;;;;1.59;69.61;101568.00;681703;1263;141905;-79
2024/03/07 02:45:14;;;;;;;38.80;17.00;;;;;;;1.60;69.86;101563.66;681775;1260;140678;-79
2024/03/07 03:00:26;;;;;;;36.80;17.00;;;;;;;1.55;70.07;101556.73;681501;1263;141435;-79
2024/03/07 03:15:31;;;;;;;47.40;16.10;;;;;;;1.44;70.12;101562.04;681693;1263;139940;-78
2024/03/07 03:30:36;;;;;;;30.50;15.40;;;;;;;1.45;70.40;101556.83;681743;1265;139956;-78
2024/03/07 03:45:39;;;;;;;37.30;17.20;;;;;;;1.43;70.51;101568.09;681908;1260;138860;-79
2024/03/07 04:00:45;;;;;;;177.30;50.00;;;;;;;1.33;70.71;101572.02;681181;1261;140478;-78
2024/03/07 04:15:49;;;;;;;55.80;23.20;;;;;;;1.35;70.43;101574.55;681491;1261;141069;-78
2024/03/07 04:30:53;;;;;;;52.70;21.40;;;;;;;1.25;70.77;101573.10;681559;1261;140257;-79
2024/03/07 04:45:56;;;;;;;129.60;38.10;;;;;;;1.16;71.10;101580.09;681639;1264;139291;-78
2024/03/07 05:01:00;;;;;;;94.70;32.80;;;;;;;1.08;70.88;101591.17;681526;1264;139996;-78
2024/03/07 05:16:04;;;;;;;95.80;36.40;;;;;;;1.04;71.12;101591.79;681406;1263;139554;-79
2024/03/07 05:31:12;;;;;;;94.30;37.30;;;;;;;0.99;71.18;101597.59;681309;1267;139126;-78
2024/03/07 05:46:15;;;;;;;279.60;99.20;;;;;;;1.17;71.82;101600.55;681462;1261;139165;-78
2024/03/07 06:01:20;;;;;;;273.00;98.60;;;;;;;1.38;71.34;101601.34;681463;1263;140457;-78
2024/03/07 06:16:24;;;;;;;300.90;120.50;;;;;;;1.69;71.68;101597.69;681726;1264;140916;-78
2024/03/07 06:31:28;;;;;;;154.90;62.50;;;;;;;2.69;72.55;101596.86;681310;1267;139334;-78
2024/03/07 06:46:34;;;;;;;100.10;46.50;;;;;;;6.56;73.75;101609.63;681820;1266;138932;-79
2024/03/07 07:01:42;;;;;;;108.30;54.60;;;;;;;10.11;70.74;101613.13;681462;1265;140538;-79
2024/03/07 07:16:46;;;;;;;;;;;;;;;12.20;64.83;101615.70;681880;1264;139089;-79
2024/03/07 07:31:50;;;;;;;74.20;38.00;;;;;;;12.38;59.96;101617.83;681454;1265;127513;-79
2024/03/07 07:46:54;;;;;;;68.00;31.60;;;;;;;9.87;59.23;101615.40;681486;1265;139060;-78
2024/03/07 08:01:57;;;;;;;42.40;20.00;;;;;;;9.57;60.57;101611.31;681629;1264;139407;-78
2024/03/07 08:17:02;;;;;;;43.30;22.70;;;;;;;14.23;58.80;101610.08;681327;1264;210921;-78
2024/03/07 08:32:06;;;;;;;32.70;17.50;;;;;;;15.53;53.92;101601.69;681433;1265;140143;-78
2024/03/07 08:47:12;;;;;;;36.10;20.20;;;;;;;15.93;51.72;101603.79;681549;1265;139356;-77
2024/03/07 09:02:17;;;;;;;40.50;23.50;;;;;;;16.89;51.32;101602.85;681374;1261;140323;-79
2024/03/07 09:17:21;;;;;;;30.90;19.90;;;;;;;17.46;49.97;101597.11;681801;1266;141793;-79
2024/03/07 09:32:25;;;;;;;36.70;20.40;;;;;;;17.28;47.55;101596.87;681772;1262;138985;-78
2024/03/07 09:47:31;;;;;;;31.80;14.80;;;;;;;17.12;46.33;101589.86;681897;1265;139383;-79
2024/03/07 10:02:40;;;;;;;24.10;13.10;;;;;;;16.26;46.26;101584.05;681928;1265;139348;-79
2024/03/07 10:17:45;;;;;;;16.20;8.40;;;;;;;16.89;44.72;101583.38;681830;1266;139178;-79
2024/03/07 10:32:59;;;;;;;22.00;10.90;;;;;;;15.98;43.63;101579.70;682035;1264;139969;-80
2024/03/07 10:48:11;;;;;;;20.40;10.10;;;;;;;16.88;43.51;101578.16;681991;1261;140284;-80
2024/03/07 11:03:20;;;;;;;14.20;8.30;;;;;;;16.62;43.29;101577.60;682132;1263;139307;-79
2024/03/07 11:18:26;;;;;;;83.40;32.50;;;;;;;16.58;43.76;101568.09;682118;1265;138291;-79
2024/03/07 11:33:31;;;;;;;18.00;10.10;;;;;;;16.31;44.59;101555.77;682002;1264;138583;-78
2024/03/07 11:48:35;;;;;;;27.30;13.30;;;;;;;14.76;45.77;101541.90;682311;1265;139201;-79
2024/03/07 12:03:39;;;;;;;30.90;15.60;;;;;;;14.77;46.49;101528.93;682310;1265;138530;-80
2024/03/07 12:18:44;;;;;;;44.60;18.60;;;;;;;14.43;46.59;101515.27;681725;1263;138492;-79
2024/03/07 12:33:51;;;;;;;25.00;13.90;;;;;;;14.23;46.69;101509.95;682014;1265;138680;-79
2024/03/07 12:48:58;;;;;;;40.20;17.80;;;;;;;13.89;46.14;101493.02;681935;1263;139533;-79
2024/03/07 13:04:04;;;;;;;15.00;8.70;;;;;;;13.53;46.41;101479.66;681903;1265;139069;-79
2024/03/07 13:19:08;;;;;;;30.40;13.50;;;;;;;13.10;46.21;101469.34;681919;1265;138234;-79
2024/03/07 13:34:15;;;;;;;21.90;11.30;;;;;;;12.87;45.71;101456.27;681961;1264;139211;-79
2024/03/07 13:49:19;;;;;;;57.50;23.00;;;;;;;12.74;45.93;101444.44;681789;1265;138752;-78
2024/03/07 14:04:52;;;;;;;16.60;9.10;;;;;;;12.68;45.80;101432.09;682065;1266;138874;-79
2024/03/07 14:20:45;;;;;;;22.40;11.30;;;;;;;12.58;45.27;101418.88;681915;1266;138897;-78
2024/03/07 14:36:10;;;;;;;39.50;16.30;;;;;;;12.41;45.25;101404.02;681627;1267;140219;-78
2024/03/07 14:51:16;;;;;;;32.70;16.10;;;;;;;12.47;45.55;101397.77;681847;1264;138533;-79
2024/03/07 15:06:22;;;;;;;31.20;14.70;;;;;;;12.00;45.83;101393.66;681893;1266;139736;-79
2024/03/07 15:21:27;;;;;;;33.30;19.80;;;;;;;11.56;46.71;101385.93;681924;1265;138240;-79
2024/03/07 15:36:34;;;;;;;34.10;15.30;;;;;;;10.96;46.86;101376.64;681836;1265;139928;-79
2024/03/07 15:51:56;;;;;;;58.80;24.30;;;;;;;10.36;47.12;101371.55;681978;1264;139253;-79
2024/03/07 16:07:06;;;;;;;77.20;33.60;;;;;;;9.48;48.70;101371.06;682159;1261;138141;-79
2024/03/07 16:22:13;;;;;;;324.30;121.60;;;;;;;9.36;49.32;101371.33;681920;1266;138644;-79
2024/03/07 16:37:23;;;;;;;165.70;64.00;;;;;;;9.14;49.30;101375.69;682000;1264;138463;-80
2024/03/07 16:52:28;;;;;;;193.10;72.00;;;;;;;8.14;50.45;101378.70;681988;1260;138534;-79
2024/03/07 17:07:33;;;;;;;492.10;180.10;;;;;;;7.69;51.15;101379.78;681909;1261;138496;-80
2024/03/07 17:22:39;;;;;;;623.10;256.10;;;;;;;7.33;51.78;101382.19;681752;1264;139323;-79
2024/03/07 17:37:44;;;;;;;539.20;198.50;;;;;;;7.06;52.01;101381.09;681641;1265;138330;-79
2024/03/07 17:52:50;;;;;;;240.00;72.40;;;;;;;6.55;52.68;101375.54;681940;1265;138988;-79
2024/03/07 18:07:54;;;;;;;300.90;111.60;;;;;;;6.41;53.29;101375.21;681812;1266;140113;-79
2024/03/07 18:23:07;;;;;;;491.40;159.20;;;;;;;5.85;54.42;101380.52;681977;1265;139771;-79
2024/03/07 18:38:14;;;;;;;692.40;217.00;;;;;;;5.30;55.05;101383.54;681736;1264;138357;-79
2024/03/07 18:53:19;;;;;;;423.70;120.40;;;;;;;3.96;57.25;101382.91;681872;1261;140191;-79
2024/03/07 19:08:28;;;;;;;330.40;98.50;;;;;;;2.91;60.33;101383.27;681928;1266;139904;-79
2024/03/07 19:23:31;;;;;;;271.60;92.00;;;;;;;2.58;61.66;101389.52;682008;1261;140044;-80
2024/03/07 19:38:38;;;;;;;594.90;208.20;;;;;;;2.31;62.59;101394.83;681635;1262;139383;-80
2024/03/07 19:53:42;;;;;;;560.30;194.30;;;;;;;1.98;63.36;101391.82;681474;1264;139220;-80
2024/03/07 20:08:46;;;;;;;587.90;205.20;;;;;;;1.66;64.59;101386.02;681611;1264;188844;-79
2024/03/07 20:23:51;;;;;;;610.00;219.40;;;;;;;1.30;65.45;101385.09;681601;1266;139444;-79
2024/03/07 20:38:55;;;;;;;441.70;143.80;;;;;;;2.55;63.20;101387.96;681736;1262;140860;-79
2024/03/07 20:53:59;;;;;;;317.50;98.10;;;;;;;3.04;60.74;101384.67;681715;1262;140791;-79
2024/03/07 21:09:03;;;;;;;243.80;70.00;;;;;;;3.05;60.59;101386.88;681468;1262;139108;-79
2024/03/07 21:24:07;;;;;;;302.40;95.20;;;;;;;2.94;60.53;101384.71;681556;1265;139133;-79
2024/03/07 21:39:12;;;;;;;339.80;106.70;;;;;;;2.62;60.73;101371.91;681228;1262;139177;-78
2024/03/07 21:54:24;;;;;;;209.50;64.20;;;;;;;2.48;60.79;101375.90;681477;1275;139961;-79
2024/03/07 22:09:28;;;;;;;199.20;69.80;;;;;;;2.53;60.93;101374.33;681744;1264;139763;-78
2024/03/07 22:24:31;;;;;;;117.50;38.00;;;;;;;2.37;61.65;101372.84;681646;1266;140092;-78
2024/03/07 22:39:35;;;;;;;181.90;57.00;;;;;;;2.03;61.27;101366.45;681658;1261;139204;-78
2024/03/07 22:54:39;;;;;;;115.90;37.30;;;;;;;0.74;65.28;101371.44;681792;1261;139636;-78
2024/03/07 23:09:42;;;;;;;75.80;27.90;;;;;;;0.60;65.74;101371.51;681869;1262;139276;-78
2024/03/07 23:24:46;;;;;;;99.80;33.20;;;;;;;0.42;66.05;101365.30;681851;1265;139540;-78
2024/03/07 23:39:50;;;;;;;67.00;23.60;;;;;;;0.40;66.96;101356.23;681988;1262;138801;-79
2024/03/07 23:54:55;;;;;;;79.70;29.30;;;;;;;0.44;67.35;101347.70;681835;1262;138866;-79
